createdAt,value
2022-12-17T00:04:22.501Z,63.15
2022-12-17T00:09:23.868Z,67.60
2022-12-17T00:14:25.332Z,57.35
2022-12-17T00:19:26.713Z,53.60
2022-12-17T00:24:28.099Z,57.83
2022-12-17T00:29:29.462Z,60.55
2022-12-17T00:34:30.898Z,53.50
2022-12-17T00:39:32.274Z,50.53
2022-12-17T00:44:33.660Z,57.75
2022-12-17T00:49:35.443Z,64.30
2022-12-17T00:54:36.794Z,55.97
2022-12-17T00:59:38.154Z,50.30
2022-12-17T01:04:39.529Z,51.83
2022-12-17T01:09:41.152Z,48.00
2022-12-17T01:14:42.534Z,47.17
2022-12-17T01:19:44.207Z,48.97
2022-12-17T01:24:45.660Z,47.80
2022-12-17T01:29:47.086Z,44.92
2022-12-17T01:34:48.472Z,47.97
2022-12-17T01:39:50.654Z,45.53
2022-12-17T01:44:55.373Z,54.95
2022-12-17T01:49:57.218Z,47.60
2022-12-17T01:54:58.696Z,51.55
2022-12-17T02:00:04.600Z,54.03
2022-12-17T02:05:06.212Z,49.00
2022-12-17T02:10:07.630Z,43.90
2022-12-17T02:15:24.193Z,53.42
2022-12-17T02:20:34.538Z,48.88
2022-12-17T02:25:47.944Z,53.47
2022-12-17T02:30:50.371Z,52.85
2022-12-17T02:36:02.675Z,49.15
2022-12-17T02:41:06.081Z,59.85
2022-12-17T02:46:08.339Z,57.55
2022-12-17T02:51:10.282Z,48.95
2022-12-17T02:56:11.658Z,47.58
2022-12-17T03:01:13.129Z,48.17
2022-12-17T03:06:14.687Z,51.83
2022-12-17T03:11:16.115Z,44.83
2022-12-17T03:16:18.822Z,53.28
2022-12-17T03:21:20.224Z,52.08
2022-12-17T03:26:21.621Z,52.45
2022-12-17T03:31:23.336Z,49.22
2022-12-17T03:36:24.715Z,47.58
2022-12-17T03:41:26.085Z,44.38
2022-12-17T03:46:27.569Z,53.08
2022-12-17T03:51:28.929Z,49.22
2022-12-17T03:56:31.219Z,43.85
2022-12-17T04:01:32.738Z,49.25
2022-12-17T04:06:34.229Z,54.45
2022-12-17T04:11:35.623Z,46.65
2022-12-17T04:16:37.031Z,47.50
2022-12-17T04:21:38.443Z,48.17
2022-12-17T04:26:39.904Z,40.35
2022-12-17T04:31:41.307Z,42.80
2022-12-17T04:36:42.742Z,49.08
2022-12-17T04:41:44.283Z,39.38
2022-12-17T04:46:45.769Z,38.70
2022-12-17T04:51:47.206Z,42.58
2022-12-17T04:56:48.663Z,37.15
2022-12-17T05:01:50.126Z,40.17
2022-12-17T05:06:51.702Z,36.88
2022-12-17T05:11:53.029Z,50.22
2022-12-17T05:16:54.674Z,41.13
2022-12-17T05:21:56.001Z,34.75
2022-12-17T05:26:58.515Z,40.60
2022-12-17T05:32:00.025Z,39.85
2022-12-17T05:37:01.426Z,36.83
2022-12-17T05:42:02.794Z,42.45
2022-12-17T05:47:04.217Z,36.35
2022-12-17T05:52:05.558Z,40.10
2022-12-17T05:57:06.932Z,42.95
2022-12-17T06:02:08.308Z,37.47
2022-12-17T06:07:09.765Z,41.97
2022-12-17T06:12:11.094Z,43.97
2022-12-17T06:17:12.465Z,39.25
2022-12-17T06:22:14.019Z,42.47
2022-12-17T06:27:15.505Z,41.03
2022-12-17T06:32:17.118Z,49.10
2022-12-17T06:37:18.558Z,44.38
2022-12-17T06:42:19.947Z,44.05
2022-12-17T06:47:21.613Z,38.67
2022-12-17T06:52:23.109Z,38.03
2022-12-17T06:57:24.473Z,39.85
2022-12-17T07:02:25.954Z,37.63
2022-12-17T07:07:27.355Z,43.55
2022-12-17T07:12:28.775Z,43.35
2022-12-17T07:17:30.137Z,42.53
2022-12-17T07:22:31.515Z,38.80
2022-12-17T07:27:32.851Z,40.50
2022-12-17T07:32:34.221Z,32.47
2022-12-17T07:37:35.699Z,35.60
2022-12-17T07:42:39.768Z,42.40
2022-12-17T07:47:41.258Z,39.35
2022-12-17T07:52:42.675Z,31.83
2022-12-17T07:57:44.117Z,36.00
2022-12-17T08:02:45.845Z,30.42
2022-12-17T08:07:47.372Z,30.67
2022-12-17T08:13:00.424Z,32.13
2022-12-17T08:18:02.467Z,32.25
2022-12-17T08:23:04.670Z,30.48
2022-12-17T08:28:11.076Z,31.08
2022-12-17T08:33:22.334Z,31.27
2022-12-17T08:38:23.733Z,28.80
2022-12-17T08:43:25.100Z,28.40
2022-12-17T08:48:26.863Z,30.00
2022-12-17T08:53:34.595Z,33.10
2022-12-17T08:58:36.500Z,34.45
2022-12-17T09:03:38.163Z,34.60
2022-12-17T09:08:39.877Z,33.05
2022-12-17T09:13:41.355Z,29.30
2022-12-17T09:18:43.032Z,33.92
2022-12-17T09:23:44.430Z,31.17
2022-12-17T09:28:46.213Z,30.40
2022-12-17T09:33:47.827Z,23.95
2022-12-17T09:38:49.367Z,26.75
2022-12-17T09:44:01.714Z,25.63
2022-12-17T09:49:19.794Z,26.80
2022-12-17T09:54:33.688Z,27.85
2022-12-17T09:59:35.999Z,25.75
2022-12-17T10:04:41.747Z,28.25
2022-12-17T10:09:52.912Z,23.00
2022-12-17T10:14:54.306Z,30.02
2022-12-17T10:19:56.203Z,27.35
2022-12-17T10:24:58.361Z,32.58
2022-12-17T10:30:00.255Z,26.60
2022-12-17T10:35:20.392Z,31.98
2022-12-17T10:40:27.023Z,32.90
2022-12-17T10:45:34.329Z,29.55
2022-12-17T10:50:42.625Z,33.42
2022-12-17T10:55:56.582Z,25.42
2022-12-17T11:01:03.248Z,42.83
2022-12-17T11:06:08.409Z,40.70
2022-12-17T11:11:13.624Z,33.45
2022-12-17T11:16:31.500Z,31.27
2022-12-17T11:21:52.315Z,33.60
2022-12-17T11:40:17.387Z,29.48
2022-12-17T11:45:31.888Z,30.35
2022-12-17T11:50:45.182Z,30.33
2022-12-17T11:55:58.049Z,27.17
2022-12-17T12:01:37.343Z,29.15
2022-12-17T12:07:03.088Z,30.70
2022-12-17T12:12:35.896Z,28.77
2022-12-17T12:18:00.921Z,29.42
2022-12-17T12:23:16.202Z,34.83
2022-12-17T12:28:33.421Z,26.88
2022-12-17T12:33:47.557Z,31.95
2022-12-17T12:38:53.774Z,23.25
2022-12-17T12:44:01.663Z,29.30
2022-12-17T12:49:17.296Z,29.15
2022-12-17T12:54:49.932Z,26.45
2022-12-17T12:59:51.300Z,28.27
2022-12-17T13:04:54.195Z,32.38
2022-12-17T13:09:59.445Z,30.35
2022-12-17T13:15:15.589Z,25.27
2022-12-17T13:20:22.172Z,28.85
2022-12-17T13:25:23.693Z,30.80
2022-12-17T13:30:37.401Z,26.58
2022-12-17T13:35:48.705Z,27.75
2022-12-17T13:41:11.956Z,33.75
2022-12-17T13:46:27.012Z,39.70
2022-12-17T13:51:31.367Z,31.75
2022-12-17T13:56:36.186Z,26.60
2022-12-17T14:01:46.751Z,26.98
2022-12-17T14:06:48.633Z,23.73
2022-12-17T14:11:50.906Z,28.95
2022-12-17T14:16:52.639Z,27.35
2022-12-17T14:21:55.112Z,21.58
2022-12-17T14:26:59.960Z,23.40
2022-12-17T14:32:21.249Z,22.42
2022-12-17T14:37:27.050Z,19.30
2022-12-17T14:42:28.873Z,26.70
2022-12-17T14:47:32.529Z,27.17
2022-12-17T14:52:41.290Z,26.10
2022-12-17T14:57:43.090Z,29.63
2022-12-17T15:02:51.146Z,27.00
2022-12-17T15:07:52.801Z,24.65
2022-12-17T15:12:54.223Z,32.35
2022-12-17T15:17:55.650Z,26.85
2022-12-17T15:22:57.068Z,26.13
2022-12-17T15:27:59.013Z,31.95
2022-12-17T15:33:00.754Z,28.98
2022-12-17T15:38:02.612Z,30.60
2022-12-17T15:43:06.325Z,32.17
2022-12-17T15:48:08.680Z,26.08
2022-12-17T15:53:10.935Z,29.98
2022-12-17T15:58:13.551Z,36.22
2022-12-17T16:03:15.276Z,36.78
2022-12-17T16:08:17.895Z,28.45
2022-12-17T16:13:20.184Z,45.80
2022-12-17T16:18:21.749Z,34.28
2022-12-17T16:23:26.452Z,30.40
2022-12-17T16:28:29.246Z,33.33
2022-12-17T16:33:36.539Z,37.47
2022-12-17T16:38:47.737Z,70.90
2022-12-17T16:43:50.941Z,91.53
2022-12-17T17:10:47.281Z,50.40
2022-12-17T17:15:48.829Z,38.47
2022-12-17T17:20:50.269Z,31.55
2022-12-17T17:25:58.072Z,41.38
2022-12-17T17:31:01.656Z,33.50
2022-12-17T17:36:08.105Z,31.88
2022-12-17T17:41:12.242Z,31.98
2022-12-17T17:46:16.826Z,28.92
2022-12-17T17:51:45.266Z,27.48
2022-12-17T17:56:46.310Z,29.60
2022-12-17T18:01:50.245Z,27.35
2022-12-17T18:12:13.403Z,28.65
2022-12-17T18:17:14.770Z,30.00
2022-12-17T18:22:16.161Z,29.58
2022-12-17T18:27:17.602Z,27.13
2022-12-17T18:32:19.019Z,28.05
2022-12-17T18:37:20.456Z,25.52
2022-12-17T18:42:21.801Z,28.17
2022-12-17T18:47:23.327Z,23.73
2022-12-17T18:52:24.945Z,32.38
2022-12-17T18:57:26.345Z,27.92
2022-12-17T19:02:27.781Z,26.55
2022-12-17T19:07:29.310Z,31.80
2022-12-17T19:12:30.850Z,28.13
2022-12-17T19:17:32.325Z,29.90
2022-12-17T19:22:33.747Z,27.08
2022-12-17T19:27:35.473Z,27.40
2022-12-17T19:32:36.862Z,24.98
2022-12-17T19:37:38.291Z,26.20
2022-12-17T19:42:39.762Z,23.55
2022-12-17T19:47:41.126Z,30.38
2022-12-17T19:52:42.630Z,28.42
2022-12-17T19:57:44.009Z,24.65
2022-12-17T20:02:45.473Z,27.88
2022-12-17T20:07:46.942Z,30.58
2022-12-17T20:12:48.360Z,26.08
2022-12-17T20:17:49.670Z,26.30
2022-12-17T20:22:51.049Z,29.83
2022-12-17T20:27:52.543Z,26.75
2022-12-17T20:32:53.973Z,23.98
2022-12-17T20:37:55.411Z,25.92
2022-12-17T20:42:56.827Z,26.92
2022-12-17T20:47:58.241Z,27.55
2022-12-17T20:52:59.607Z,21.35
2022-12-17T20:58:00.981Z,27.52
2022-12-17T21:03:02.437Z,27.45
2022-12-17T21:08:04.189Z,20.00
2022-12-17T21:13:05.646Z,25.27
2022-12-17T21:18:07.489Z,25.40
2022-12-17T21:23:08.951Z,21.80
2022-12-17T21:28:10.383Z,23.63
2022-12-17T21:33:11.845Z,26.63
2022-12-17T21:38:13.792Z,24.85
2022-12-17T21:43:15.223Z,27.67
2022-12-17T21:48:16.674Z,25.55
2022-12-17T21:53:18.089Z,24.33
2022-12-17T21:58:19.969Z,21.98
2022-12-17T22:03:21.526Z,25.52
2022-12-17T22:08:22.882Z,21.85
2022-12-17T22:13:24.688Z,23.58
2022-12-17T22:18:26.036Z,25.30
2022-12-17T22:23:27.799Z,22.48
2022-12-17T22:28:29.652Z,22.73
2022-12-17T22:34:00.924Z,20.95
2022-12-17T22:41:38.509Z,19.40
2022-12-17T22:44:41.157Z,19.95
2022-12-17T22:49:35.711Z,20.85
2022-12-17T22:54:37.259Z,23.75
2022-12-17T22:59:39.740Z,20.13
2022-12-17T23:04:41.824Z,25.50
2022-12-17T23:09:43.257Z,23.90
2022-12-17T23:14:44.877Z,22.00
2022-12-17T23:19:46.264Z,20.20
2022-12-17T23:24:47.685Z,26.92
2022-12-17T23:29:49.458Z,24.02
2022-12-17T23:34:50.860Z,23.25
2022-12-17T23:39:52.296Z,21.33
2022-12-17T23:44:53.804Z,18.95
2022-12-17T23:49:55.673Z,22.33
2022-12-17T23:54:57.058Z,18.35
2022-12-17T23:59:58.411Z,19.33
